sensor_id;sensor_type;location;lat;lon;timestamp;P1;durP1;ratioP1;P2;durP2;ratioP2
21360;SDS011;10839;43.206;23.550;2024-02-21T00:01:05;13.95;;;9.43;;
21360;SDS011;10839;43.206;23.550;2024-02-21T00:03:31;15.88;;;10.27;;
21360;SDS011;10839;43.206;23.550;2024-02-21T00:05:56;17.20;;;10.70;;
21360;SDS011;10839;43.206;23.550;2024-02-21T00:08:22;15.68;;;9.93;;
21360;SDS011;10839;43.206;23.550;2024-02-21T00:10:47;15.27;;;9.73;;
21360;SDS011;10839;43.206;23.550;2024-02-21T00:13:14;16.02;;;9.73;;
21360;SDS011;10839;43.206;23.550;2024-02-21T00:15:40;15.93;;;10.65;;
21360;SDS011;10839;43.206;23.550;2024-02-21T00:18:05;13.98;;;9.90;;
21360;SDS011;10839;43.206;23.550;2024-02-21T00:20:31;13.63;;;9.23;;
21360;SDS011;10839;43.206;23.550;2024-02-21T00:22:56;17.52;;;10.00;;
21360;SDS011;10839;43.206;23.550;2024-02-21T00:25:22;14.15;;;9.82;;
21360;SDS011;10839;43.206;23.550;2024-02-21T00:27:47;12.35;;;8.63;;
21360;SDS011;10839;43.206;23.550;2024-02-21T00:30:13;12.70;;;8.75;;
21360;SDS011;10839;43.206;23.550;2024-02-21T00:32:38;13.90;;;8.95;;
21360;SDS011;10839;43.206;23.550;2024-02-21T00:35:04;15.18;;;10.15;;
21360;SDS011;10839;43.206;23.550;2024-02-21T00:37:30;12.55;;;8.98;;
21360;SDS011;10839;43.206;23.550;2024-02-21T00:39:56;13.38;;;8.60;;
21360;SDS011;10839;43.206;23.550;2024-02-21T00:42:22;11.65;;;8.43;;
21360;SDS011;10839;43.206;23.550;2024-02-21T00:44:47;11.57;;;8.40;;
21360;SDS011;10839;43.206;23.550;2024-02-21T00:47:13;12.82;;;8.07;;
21360;SDS011;10839;43.206;23.550;2024-02-21T00:49:38;12.38;;;8.52;;
21360;SDS011;10839;43.206;23.550;2024-02-21T00:52:04;10.25;;;7.30;;
21360;SDS011;10839;43.206;23.550;2024-02-21T00:54:30;11.30;;;7.85;;
21360;SDS011;10839;43.206;23.550;2024-02-21T00:56:55;10.23;;;7.38;;
21360;SDS011;10839;43.206;23.550;2024-02-21T00:59:20;10.27;;;7.45;;
21360;SDS011;10839;43.206;23.550;2024-02-21T01:01:46;11.30;;;7.70;;
21360;SDS011;10839;43.206;23.550;2024-02-21T01:04:11;10.45;;;6.95;;
21360;SDS011;10839;43.206;23.550;2024-02-21T01:06:37;9.93;;;7.15;;
21360;SDS011;10839;43.206;23.550;2024-02-21T01:09:03;9.95;;;7.00;;
21360;SDS011;10839;43.206;23.550;2024-02-21T01:11:29;10.70;;;7.68;;
21360;SDS011;10839;43.206;23.550;2024-02-21T01:13:55;8.70;;;6.63;;
21360;SDS011;10839;43.206;23.550;2024-02-21T01:16:20;11.43;;;7.05;;
21360;SDS011;10839;43.206;23.550;2024-02-21T01:18:46;10.90;;;7.57;;
21360;SDS011;10839;43.206;23.550;2024-02-21T01:21:11;11.95;;;7.90;;
21360;SDS011;10839;43.206;23.550;2024-02-21T01:23:37;11.65;;;7.93;;
21360;SDS011;10839;43.206;23.550;2024-02-21T01:26:03;12.55;;;7.68;;
21360;SDS011;10839;43.206;23.550;2024-02-21T01:28:29;10.57;;;7.63;;
21360;SDS011;10839;43.206;23.550;2024-02-21T01:30:56;10.73;;;7.60;;
21360;SDS011;10839;43.206;23.550;2024-02-21T01:33:22;11.13;;;7.40;;
21360;SDS011;10839;43.206;23.550;2024-02-21T01:35:47;11.80;;;8.25;;
21360;SDS011;10839;43.206;23.550;2024-02-21T01:38:14;12.10;;;7.70;;
21360;SDS011;10839;43.206;23.550;2024-02-21T01:40:39;12.45;;;7.72;;
21360;SDS011;10839;43.206;23.550;2024-02-21T01:43:14;13.07;;;8.85;;
21360;SDS011;10839;43.206;23.550;2024-02-21T01:45:41;15.23;;;8.95;;
21360;SDS011;10839;43.206;23.550;2024-02-21T01:48:06;12.88;;;8.50;;
21360;SDS011;10839;43.206;23.550;2024-02-21T01:50:32;12.30;;;8.57;;
21360;SDS011;10839;43.206;23.550;2024-02-21T01:52:58;13.52;;;9.82;;
21360;SDS011;10839;43.206;23.550;2024-02-21T01:55:25;14.57;;;10.02;;
21360;SDS011;10839;43.206;23.550;2024-02-21T01:57:50;15.45;;;10.10;;
21360;SDS011;10839;43.206;23.550;2024-02-21T02:00:17;15.05;;;9.40;;
21360;SDS011;10839;43.206;23.550;2024-02-21T02:02:42;15.80;;;10.45;;
21360;SDS011;10839;43.206;23.550;2024-02-21T02:05:10;15.95;;;10.38;;
21360;SDS011;10839;43.206;23.550;2024-02-21T02:07:35;21.27;;;11.20;;
21360;SDS011;10839;43.206;23.550;2024-02-21T02:10:01;15.70;;;9.85;;
21360;SDS011;10839;43.206;23.550;2024-02-21T02:12:27;13.80;;;8.75;;
21360;SDS011;10839;43.206;23.550;2024-02-21T02:15:02;18.25;;;10.45;;
21360;SDS011;10839;43.206;23.550;2024-02-21T02:17:30;17.63;;;10.23;;
21360;SDS011;10839;43.206;23.550;2024-02-21T02:19:55;19.85;;;10.65;;
21360;SDS011;10839;43.206;23.550;2024-02-21T02:22:30;18.08;;;11.27;;
21360;SDS011;10839;43.206;23.550;2024-02-21T02:24:58;16.10;;;10.40;;
21360;SDS011;10839;43.206;23.550;2024-02-21T02:27:24;20.63;;;11.80;;
21360;SDS011;10839;43.206;23.550;2024-02-21T02:29:49;21.67;;;11.88;;
21360;SDS011;10839;43.206;23.550;2024-02-21T02:32:15;19.98;;;12.20;;
21360;SDS011;10839;43.206;23.550;2024-02-21T02:34:41;20.88;;;12.75;;
21360;SDS011;10839;43.206;23.550;2024-02-21T02:37:06;18.67;;;10.57;;
21360;SDS011;10839;43.206;23.550;2024-02-21T02:39:32;18.25;;;10.82;;
21360;SDS011;10839;43.206;23.550;2024-02-21T02:41:57;20.38;;;10.77;;
21360;SDS011;10839;43.206;23.550;2024-02-21T02:44:23;16.05;;;10.32;;
21360;SDS011;10839;43.206;23.550;2024-02-21T02:46:49;18.15;;;10.48;;
21360;SDS011;10839;43.206;23.550;2024-02-21T02:49:14;14.98;;;9.48;;
21360;SDS011;10839;43.206;23.550;2024-02-21T02:51:43;35.08;;;20.25;;
21360;SDS011;10839;43.206;23.550;2024-02-21T02:54:09;17.52;;;10.40;;
21360;SDS011;10839;43.206;23.550;2024-02-21T02:56:35;15.93;;;10.30;;
21360;SDS011;10839;43.206;23.550;2024-02-21T02:59:00;17.25;;;10.45;;
21360;SDS011;10839;43.206;23.550;2024-02-21T03:01:26;15.43;;;10.20;;
21360;SDS011;10839;43.206;23.550;2024-02-21T03:03:52;14.75;;;10.00;;
21360;SDS011;10839;43.206;23.550;2024-02-21T03:06:18;15.77;;;10.82;;
21360;SDS011;10839;43.206;23.550;2024-02-21T03:08:43;15.65;;;10.63;;
21360;SDS011;10839;43.206;23.550;2024-02-21T03:11:09;16.08;;;11.13;;
21360;SDS011;10839;43.206;23.550;2024-02-21T03:13:36;18.33;;;11.55;;
21360;SDS011;10839;43.206;23.550;2024-02-21T03:16:01;17.65;;;11.93;;
21360;SDS011;10839;43.206;23.550;2024-02-21T03:18:27;19.30;;;12.50;;
21360;SDS011;10839;43.206;23.550;2024-02-21T03:20:52;17.98;;;11.98;;
21360;SDS011;10839;43.206;23.550;2024-02-21T03:23:18;16.73;;;11.32;;
21360;SDS011;10839;43.206;23.550;2024-02-21T03:25:43;15.13;;;10.50;;
21360;SDS011;10839;43.206;23.550;2024-02-21T03:28:09;17.60;;;10.80;;
21360;SDS011;10839;43.206;23.550;2024-02-21T03:30:34;17.33;;;11.48;;
21360;SDS011;10839;43.206;23.550;2024-02-21T03:33:00;16.42;;;10.63;;
21360;SDS011;10839;43.206;23.550;2024-02-21T03:35:26;17.05;;;11.32;;
21360;SDS011;10839;43.206;23.550;2024-02-21T03:37:52;16.65;;;10.63;;
21360;SDS011;10839;43.206;23.550;2024-02-21T03:40:18;18.02;;;11.35;;
21360;SDS011;10839;43.206;23.550;2024-02-21T03:42:43;17.27;;;11.35;;
21360;SDS011;10839;43.206;23.550;2024-02-21T03:45:09;16.85;;;11.30;;
21360;SDS011;10839;43.206;23.550;2024-02-21T03:47:35;17.05;;;11.13;;
21360;SDS011;10839;43.206;23.550;2024-02-21T03:50:00;17.80;;;11.25;;
21360;SDS011;10839;43.206;23.550;2024-02-21T03:52:26;17.70;;;11.50;;
21360;SDS011;10839;43.206;23.550;2024-02-21T03:54:51;19.33;;;11.90;;
21360;SDS011;10839;43.206;23.550;2024-02-21T03:57:17;19.98;;;12.00;;
21360;SDS011;10839;43.206;23.550;2024-02-21T03:59:42;20.35;;;13.02;;
21360;SDS011;10839;43.206;23.550;2024-02-21T04:02:08;17.27;;;11.10;;
21360;SDS011;10839;43.206;23.550;2024-02-21T04:04:34;18.85;;;11.30;;
21360;SDS011;10839;43.206;23.550;2024-02-21T04:07:04;19.15;;;12.13;;
21360;SDS011;10839;43.206;23.550;2024-02-21T04:09:32;18.55;;;11.48;;
21360;SDS011;10839;43.206;23.550;2024-02-21T04:11:59;16.10;;;10.35;;
21360;SDS011;10839;43.206;23.550;2024-02-21T04:14:26;16.23;;;10.80;;
21360;SDS011;10839;43.206;23.550;2024-02-21T04:16:51;16.17;;;10.90;;
21360;SDS011;10839;43.206;23.550;2024-02-21T04:19:16;16.35;;;10.45;;
21360;SDS011;10839;43.206;23.550;2024-02-21T04:21:42;16.35;;;10.20;;
21360;SDS011;10839;43.206;23.550;2024-02-21T04:24:07;17.38;;;11.32;;
21360;SDS011;10839;43.206;23.550;2024-02-21T04:26:33;15.65;;;10.43;;
21360;SDS011;10839;43.206;23.550;2024-02-21T04:28:59;17.35;;;10.98;;
21360;SDS011;10839;43.206;23.550;2024-02-21T04:31:24;16.33;;;10.65;;
21360;SDS011;10839;43.206;23.550;2024-02-21T04:33:50;18.63;;;10.85;;
21360;SDS011;10839;43.206;23.550;2024-02-21T04:36:16;17.83;;;11.02;;
21360;SDS011;10839;43.206;23.550;2024-02-21T04:38:41;14.88;;;10.55;;
21360;SDS011;10839;43.206;23.550;2024-02-21T04:41:07;17.15;;;10.75;;
21360;SDS011;10839;43.206;23.550;2024-02-21T04:43:33;16.25;;;10.35;;
21360;SDS011;10839;43.206;23.550;2024-02-21T04:45:58;14.80;;;10.18;;
21360;SDS011;10839;43.206;23.550;2024-02-21T04:48:24;17.00;;;10.43;;
21360;SDS011;10839;43.206;23.550;2024-02-21T04:50:49;16.20;;;10.10;;
21360;SDS011;10839;43.206;23.550;2024-02-21T04:53:15;19.98;;;10.38;;
21360;SDS011;10839;43.206;23.550;2024-02-21T04:55:41;18.00;;;10.63;;
21360;SDS011;10839;43.206;23.550;2024-02-21T04:58:07;15.55;;;10.90;;
21360;SDS011;10839;43.206;23.550;2024-02-21T05:00:33;15.10;;;10.90;;
21360;SDS011;10839;43.206;23.550;2024-02-21T05:02:58;18.70;;;11.98;;
21360;SDS011;10839;43.206;23.550;2024-02-21T05:05:24;16.75;;;11.43;;
21360;SDS011;10839;43.206;23.550;2024-02-21T05:07:49;21.10;;;12.32;;
21360;SDS011;10839;43.206;23.550;2024-02-21T05:10:15;20.23;;;12.05;;
21360;SDS011;10839;43.206;23.550;2024-02-21T05:12:40;19.10;;;11.82;;
21360;SDS011;10839;43.206;23.550;2024-02-21T05:15:06;20.48;;;12.20;;
21360;SDS011;10839;43.206;23.550;2024-02-21T05:17:31;20.33;;;12.35;;
21360;SDS011;10839;43.206;23.550;2024-02-21T05:19:57;18.85;;;11.55;;
21360;SDS011;10839;43.206;23.550;2024-02-21T05:22:22;19.25;;;12.07;;
21360;SDS011;10839;43.206;23.550;2024-02-21T05:24:48;19.10;;;12.35;;
21360;SDS011;10839;43.206;23.550;2024-02-21T05:27:13;16.42;;;11.18;;
21360;SDS011;10839;43.206;23.550;2024-02-21T05:29:39;19.10;;;12.55;;
21360;SDS011;10839;43.206;23.550;2024-02-21T05:32:04;19.83;;;13.45;;
21360;SDS011;10839;43.206;23.550;2024-02-21T05:34:30;18.63;;;12.68;;
21360;SDS011;10839;43.206;23.550;2024-02-21T05:36:56;20.95;;;12.88;;
21360;SDS011;10839;43.206;23.550;2024-02-21T05:39:22;34.63;;;19.95;;
21360;SDS011;10839;43.206;23.550;2024-02-21T05:41:49;19.27;;;12.85;;
21360;SDS011;10839;43.206;23.550;2024-02-21T05:44:15;17.38;;;11.55;;
21360;SDS011;10839;43.206;23.550;2024-02-21T05:46:40;15.48;;;10.80;;
21360;SDS011;10839;43.206;23.550;2024-02-21T05:49:06;18.90;;;11.48;;
21360;SDS011;10839;43.206;23.550;2024-02-21T05:51:32;14.88;;;10.68;;
21360;SDS011;10839;43.206;23.550;2024-02-21T05:53:58;17.83;;;11.23;;
21360;SDS011;10839;43.206;23.550;2024-02-21T05:56:24;16.13;;;10.23;;
21360;SDS011;10839;43.206;23.550;2024-02-21T05:58:49;16.17;;;10.63;;
21360;SDS011;10839;43.206;23.550;2024-02-21T06:01:15;15.90;;;10.02;;
21360;SDS011;10839;43.206;23.550;2024-02-21T06:03:40;14.68;;;9.70;;
21360;SDS011;10839;43.206;23.550;2024-02-21T06:06:06;16.63;;;10.63;;
21360;SDS011;10839;43.206;23.550;2024-02-21T06:08:32;17.58;;;11.70;;
21360;SDS011;10839;43.206;23.550;2024-02-21T06:10:57;16.25;;;11.50;;
21360;SDS011;10839;43.206;23.550;2024-02-21T06:13:26;21.10;;;13.93;;
21360;SDS011;10839;43.206;23.550;2024-02-21T06:15:52;21.08;;;14.15;;
21360;SDS011;10839;43.206;23.550;2024-02-21T06:18:18;21.50;;;13.23;;
21360;SDS011;10839;43.206;23.550;2024-02-21T06:20:44;19.90;;;13.50;;
21360;SDS011;10839;43.206;23.550;2024-02-21T06:23:11;22.67;;;14.25;;
21360;SDS011;10839;43.206;23.550;2024-02-21T06:25:37;22.08;;;14.80;;
21360;SDS011;10839;43.206;23.550;2024-02-21T06:28:03;36.53;;;20.02;;
21360;SDS011;10839;43.206;23.550;2024-02-21T06:30:29;24.48;;;15.48;;
21360;SDS011;10839;43.206;23.550;2024-02-21T06:32:55;21.67;;;14.75;;
21360;SDS011;10839;43.206;23.550;2024-02-21T06:35:21;21.65;;;13.77;;
21360;SDS011;10839;43.206;23.550;2024-02-21T06:37:49;22.80;;;15.00;;
21360;SDS011;10839;43.206;23.550;2024-02-21T06:40:16;26.88;;;16.38;;
21360;SDS011;10839;43.206;23.550;2024-02-21T06:42:42;23.13;;;14.25;;
21360;SDS011;10839;43.206;23.550;2024-02-21T06:45:08;25.90;;;16.40;;
21360;SDS011;10839;43.206;23.550;2024-02-21T06:47:34;22.92;;;14.65;;
21360;SDS011;10839;43.206;23.550;2024-02-21T06:49:59;26.92;;;17.25;;
21360;SDS011;10839;43.206;23.550;2024-02-21T06:52:25;27.23;;;15.25;;
21360;SDS011;10839;43.206;23.550;2024-02-21T06:54:50;22.88;;;15.38;;
21360;SDS011;10839;43.206;23.550;2024-02-21T06:57:16;30.83;;;20.25;;
21360;SDS011;10839;43.206;23.550;2024-02-21T06:59:42;30.38;;;20.60;;
21360;SDS011;10839;43.206;23.550;2024-02-21T07:02:08;47.30;;;32.10;;
21360;SDS011;10839;43.206;23.550;2024-02-21T07:04:33;44.50;;;26.63;;
21360;SDS011;10839;43.206;23.550;2024-02-21T07:06:59;33.42;;;19.45;;
21360;SDS011;10839;43.206;23.550;2024-02-21T07:09:25;29.13;;;17.88;;
21360;SDS011;10839;43.206;23.550;2024-02-21T07:11:50;25.10;;;17.05;;
21360;SDS011;10839;43.206;23.550;2024-02-21T07:14:16;27.65;;;16.23;;
21360;SDS011;10839;43.206;23.550;2024-02-21T07:16:43;27.88;;;17.20;;
21360;SDS011;10839;43.206;23.550;2024-02-21T07:19:08;33.60;;;19.88;;
21360;SDS011;10839;43.206;23.550;2024-02-21T07:21:34;36.78;;;21.38;;
21360;SDS011;10839;43.206;23.550;2024-02-21T07:23:59;32.83;;;20.27;;
21360;SDS011;10839;43.206;23.550;2024-02-21T07:26:25;27.08;;;18.20;;
21360;SDS011;10839;43.206;23.550;2024-02-21T07:28:50;30.15;;;18.60;;
21360;SDS011;10839;43.206;23.550;2024-02-21T07:31:16;28.88;;;16.80;;
21360;SDS011;10839;43.206;23.550;2024-02-21T07:33:41;23.10;;;15.80;;
21360;SDS011;10839;43.206;23.550;2024-02-21T07:36:07;18.70;;;14.50;;
21360;SDS011;10839;43.206;23.550;2024-02-21T07:38:36;22.13;;;13.82;;
21360;SDS011;10839;43.206;23.550;2024-02-21T07:41:01;22.88;;;13.63;;
21360;SDS011;10839;43.206;23.550;2024-02-21T07:43:29;26.73;;;15.38;;
21360;SDS011;10839;43.206;23.550;2024-02-21T07:45:55;14.25;;;10.07;;
21360;SDS011;10839;43.206;23.550;2024-02-21T07:48:21;16.17;;;9.73;;
21360;SDS011;10839;43.206;23.550;2024-02-21T07:50:50;13.30;;;10.13;;
21360;SDS011;10839;43.206;23.550;2024-02-21T07:53:16;16.75;;;11.05;;
21360;SDS011;10839;43.206;23.550;2024-02-21T07:55:41;23.00;;;12.65;;
21360;SDS011;10839;43.206;23.550;2024-02-21T07:58:07;19.13;;;11.77;;
21360;SDS011;10839;43.206;23.550;2024-02-21T08:00:33;21.55;;;12.93;;
21360;SDS011;10839;43.206;23.550;2024-02-21T08:02:58;19.35;;;12.82;;
21360;SDS011;10839;43.206;23.550;2024-02-21T08:05:24;21.80;;;12.48;;
21360;SDS011;10839;43.206;23.550;2024-02-21T08:07:50;16.38;;;10.52;;
21360;SDS011;10839;43.206;23.550;2024-02-21T08:10:15;15.05;;;11.07;;
21360;SDS011;10839;43.206;23.550;2024-02-21T08:12:42;14.98;;;10.90;;
21360;SDS011;10839;43.206;23.550;2024-02-21T08:15:08;19.30;;;10.65;;
21360;SDS011;10839;43.206;23.550;2024-02-21T08:17:36;14.85;;;10.25;;
21360;SDS011;10839;43.206;23.550;2024-02-21T08:20:02;17.45;;;10.70;;
21360;SDS011;10839;43.206;23.550;2024-02-21T08:22:29;21.58;;;11.85;;
21360;SDS011;10839;43.206;23.550;2024-02-21T08:24:55;22.77;;;13.18;;
21360;SDS011;10839;43.206;23.550;2024-02-21T08:27:20;17.45;;;11.75;;
21360;SDS011;10839;43.206;23.550;2024-02-21T08:29:46;16.33;;;10.65;;
21360;SDS011;10839;43.206;23.550;2024-02-21T08:32:11;13.00;;;9.68;;
21360;SDS011;10839;43.206;23.550;2024-02-21T08:34:37;19.48;;;9.85;;
21360;SDS011;10839;43.206;23.550;2024-02-21T08:37:02;14.15;;;9.75;;
21360;SDS011;10839;43.206;23.550;2024-02-21T08:39:28;11.77;;;9.15;;
21360;SDS011;10839;43.206;23.550;2024-02-21T08:41:55;14.00;;;9.00;;
21360;SDS011;10839;43.206;23.550;2024-02-21T08:44:25;14.93;;;9.23;;
21360;SDS011;10839;43.206;23.550;2024-02-21T08:46:52;11.75;;;9.18;;
21360;SDS011;10839;43.206;23.550;2024-02-21T08:49:18;17.85;;;11.43;;
21360;SDS011;10839;43.206;23.550;2024-02-21T08:51:43;17.20;;;10.85;;
21360;SDS011;10839;43.206;23.550;2024-02-21T08:54:09;18.55;;;11.55;;
21360;SDS011;10839;43.206;23.550;2024-02-21T08:56:34;15.70;;;10.80;;
21360;SDS011;10839;43.206;23.550;2024-02-21T08:59:00;17.40;;;10.85;;
21360;SDS011;10839;43.206;23.550;2024-02-21T09:01:26;24.38;;;12.27;;
21360;SDS011;10839;43.206;23.550;2024-02-21T09:03:52;18.20;;;11.20;;
21360;SDS011;10839;43.206;23.550;2024-02-21T09:06:19;14.75;;;10.68;;
21360;SDS011;10839;43.206;23.550;2024-02-21T09:08:47;11.82;;;8.25;;
21360;SDS011;10839;43.206;23.550;2024-02-21T09:11:13;13.55;;;9.65;;
21360;SDS011;10839;43.206;23.550;2024-02-21T09:13:39;14.07;;;9.63;;
21360;SDS011;10839;43.206;23.550;2024-02-21T09:16:05;12.18;;;9.05;;
21360;SDS011;10839;43.206;23.550;2024-02-21T09:18:31;12.75;;;8.95;;
21360;SDS011;10839;43.206;23.550;2024-02-21T09:20:56;15.15;;;9.63;;
21360;SDS011;10839;43.206;23.550;2024-02-21T09:23:25;17.02;;;9.50;;
21360;SDS011;10839;43.206;23.550;2024-02-21T09:25:50;10.15;;;7.50;;
21360;SDS011;10839;43.206;23.550;2024-02-21T09:28:16;11.25;;;6.88;;
21360;SDS011;10839;43.206;23.550;2024-02-21T09:30:41;8.60;;;5.20;;
21360;SDS011;10839;43.206;23.550;2024-02-21T09:33:07;19.98;;;14.18;;
21360;SDS011;10839;43.206;23.550;2024-02-21T09:35:32;12.63;;;8.85;;
21360;SDS011;10839;43.206;23.550;2024-02-21T09:37:59;14.10;;;8.98;;
21360;SDS011;10839;43.206;23.550;2024-02-21T09:40:24;16.08;;;6.68;;
21360;SDS011;10839;43.206;23.550;2024-02-21T09:42:50;10.25;;;6.28;;
21360;SDS011;10839;43.206;23.550;2024-02-21T09:45:28;11.18;;;6.60;;
21360;SDS011;10839;43.206;23.550;2024-02-21T09:50:41;9.70;;;7.72;;
21360;SDS011;10839;43.206;23.550;2024-02-21T09:53:09;9.10;;;5.68;;
21360;SDS011;10839;43.206;23.550;2024-02-21T09:55:38;11.75;;;6.53;;
21360;SDS011;10839;43.206;23.550;2024-02-21T09:58:07;11.68;;;6.57;;
21360;SDS011;10839;43.206;23.550;2024-02-21T10:00:33;11.43;;;6.05;;
21360;SDS011;10839;43.206;23.550;2024-02-21T10:03:00;8.65;;;5.20;;
21360;SDS011;10839;43.206;23.550;2024-02-21T10:05:25;9.35;;;7.85;;
21360;SDS011;10839;43.206;23.550;2024-02-21T10:07:52;44.40;;;29.55;;
21360;SDS011;10839;43.206;23.550;2024-02-21T10:10:18;19.83;;;12.60;;
21360;SDS011;10839;43.206;23.550;2024-02-21T10:12:50;16.33;;;10.75;;
21360;SDS011;10839;43.206;23.550;2024-02-21T10:15:19;11.73;;;9.38;;
21360;SDS011;10839;43.206;23.550;2024-02-21T10:17:47;13.38;;;8.98;;
21360;SDS011;10839;43.206;23.550;2024-02-21T10:20:13;10.80;;;7.45;;
21360;SDS011;10839;43.206;23.550;2024-02-21T10:22:40;10.57;;;7.63;;
21360;SDS011;10839;43.206;23.550;2024-02-21T10:25:09;11.85;;;6.25;;
21360;SDS011;10839;43.206;23.550;2024-02-21T10:27:36;39.15;;;22.75;;
21360;SDS011;10839;43.206;23.550;2024-02-21T10:30:03;30.23;;;15.00;;
21360;SDS011;10839;43.206;23.550;2024-02-21T10:32:51;18.92;;;11.80;;
21360;SDS011;10839;43.206;23.550;2024-02-21T10:35:28;11.07;;;7.45;;
21360;SDS011;10839;43.206;23.550;2024-02-21T10:41:00;12.80;;;6.60;;
21360;SDS011;10839;43.206;23.550;2024-02-21T10:43:28;11.00;;;6.68;;
21360;SDS011;10839;43.206;23.550;2024-02-21T10:48:31;14.35;;;9.32;;
21360;SDS011;10839;43.206;23.550;2024-02-21T10:51:13;11.57;;;8.10;;
21360;SDS011;10839;43.206;23.550;2024-02-21T10:56:37;6.28;;;3.40;;
21360;SDS011;10839;43.206;23.550;2024-02-21T10:59:08;4.85;;;3.15;;
21360;SDS011;10839;43.206;23.550;2024-02-21T11:01:34;9.48;;;6.22;;
21360;SDS011;10839;43.206;23.550;2024-02-21T11:04:02;6.90;;;4.68;;
21360;SDS011;10839;43.206;23.550;2024-02-21T11:06:30;6.15;;;4.30;;
21360;SDS011;10839;43.206;23.550;2024-02-21T11:09:08;8.18;;;4.60;;
21360;SDS011;10839;43.206;23.550;2024-02-21T11:14:09;5.80;;;4.45;;
21360;SDS011;10839;43.206;23.550;2024-02-21T11:16:38;7.18;;;3.72;;
21360;SDS011;10839;43.206;23.550;2024-02-21T11:19:08;6.68;;;4.03;;
21360;SDS011;10839;43.206;23.550;2024-02-21T11:21:36;5.05;;;3.00;;
21360;SDS011;10839;43.206;23.550;2024-02-21T11:24:03;4.97;;;2.85;;
21360;SDS011;10839;43.206;23.550;2024-02-21T11:26:29;3.50;;;2.30;;
21360;SDS011;10839;43.206;23.550;2024-02-21T11:29:02;9.23;;;4.05;;
21360;SDS011;10839;43.206;23.550;2024-02-21T11:31:43;2.60;;;1.73;;
21360;SDS011;10839;43.206;23.550;2024-02-21T11:34:11;7.65;;;3.28;;
21360;SDS011;10839;43.206;23.550;2024-02-21T11:36:46;6.30;;;2.55;;
21360;SDS011;10839;43.206;23.550;2024-02-21T11:39:22;8.88;;;3.78;;
21360;SDS011;10839;43.206;23.550;2024-02-21T11:42:02;6.78;;;3.40;;
21360;SDS011;10839;43.206;23.550;2024-02-21T11:44:33;12.67;;;8.37;;
21360;SDS011;10839;43.206;23.550;2024-02-21T11:47:00;5.72;;;4.00;;
21360;SDS011;10839;43.206;23.550;2024-02-21T11:49:27;6.10;;;4.38;;
21360;SDS011;10839;43.206;23.550;2024-02-21T11:51:57;6.68;;;4.50;;
21360;SDS011;10839;43.206;23.550;2024-02-21T11:54:24;9.48;;;4.40;;
21360;SDS011;10839;43.206;23.550;2024-02-21T11:56:49;9.48;;;5.00;;
21360;SDS011;10839;43.206;23.550;2024-02-21T11:59:15;8.23;;;5.22;;
21360;SDS011;10839;43.206;23.550;2024-02-21T12:01:40;8.85;;;5.47;;
21360;SDS011;10839;43.206;23.550;2024-02-21T12:04:06;10.30;;;5.13;;
21360;SDS011;10839;43.206;23.550;2024-02-21T12:06:32;8.35;;;3.88;;
21360;SDS011;10839;43.206;23.550;2024-02-21T12:08:58;6.63;;;4.05;;
21360;SDS011;10839;43.206;23.550;2024-02-21T12:11:23;7.45;;;4.90;;
21360;SDS011;10839;43.206;23.550;2024-02-21T12:14:01;6.05;;;3.97;;
21360;SDS011;10839;43.206;23.550;2024-02-21T12:16:29;7.15;;;4.25;;
21360;SDS011;10839;43.206;23.550;2024-02-21T12:18:56;6.88;;;4.22;;
21360;SDS011;10839;43.206;23.550;2024-02-21T12:21:26;8.48;;;4.50;;
21360;SDS011;10839;43.206;23.550;2024-02-21T12:23:55;8.20;;;5.28;;
21360;SDS011;10839;43.206;23.550;2024-02-21T12:26:21;9.98;;;5.55;;
21360;SDS011;10839;43.206;23.550;2024-02-21T12:28:47;10.98;;;7.70;;
21360;SDS011;10839;43.206;23.550;2024-02-21T12:31:13;9.82;;;6.70;;
21360;SDS011;10839;43.206;23.550;2024-02-21T12:33:39;8.75;;;5.45;;
21360;SDS011;10839;43.206;23.550;2024-02-21T12:36:04;7.68;;;4.75;;
21360;SDS011;10839;43.206;23.550;2024-02-21T12:38:30;7.38;;;4.90;;
21360;SDS011;10839;43.206;23.550;2024-02-21T12:40:55;6.95;;;4.20;;
21360;SDS011;10839;43.206;23.550;2024-02-21T12:43:25;9.38;;;6.05;;
21360;SDS011;10839;43.206;23.550;2024-02-21T12:45:51;8.93;;;4.97;;
21360;SDS011;10839;43.206;23.550;2024-02-21T12:48:17;11.77;;;5.88;;
21360;SDS011;10839;43.206;23.550;2024-02-21T12:50:48;8.05;;;4.20;;
21360;SDS011;10839;43.206;23.550;2024-02-21T12:53:16;14.33;;;6.70;;
21360;SDS011;10839;43.206;23.550;2024-02-21T12:55:44;10.63;;;5.63;;
21360;SDS011;10839;43.206;23.550;2024-02-21T12:58:11;10.07;;;5.93;;
21360;SDS011;10839;43.206;23.550;2024-02-21T13:00:36;10.27;;;6.40;;
21360;SDS011;10839;43.206;23.550;2024-02-21T13:03:03;7.63;;;4.30;;
21360;SDS011;10839;43.206;23.550;2024-02-21T13:05:29;7.25;;;5.00;;
21360;SDS011;10839;43.206;23.550;2024-02-21T13:07:54;10.23;;;5.28;;
21360;SDS011;10839;43.206;23.550;2024-02-21T13:10:19;7.88;;;5.38;;
21360;SDS011;10839;43.206;23.550;2024-02-21T13:12:45;8.48;;;5.13;;
21360;SDS011;10839;43.206;23.550;2024-02-21T13:15:10;8.38;;;5.38;;
21360;SDS011;10839;43.206;23.550;2024-02-21T13:17:37;9.70;;;5.82;;
21360;SDS011;10839;43.206;23.550;2024-02-21T13:20:03;11.13;;;6.60;;
21360;SDS011;10839;43.206;23.550;2024-02-21T13:22:29;12.48;;;7.88;;
21360;SDS011;10839;43.206;23.550;2024-02-21T13:24:54;12.43;;;7.57;;
21360;SDS011;10839;43.206;23.550;2024-02-21T13:27:23;11.45;;;7.43;;
21360;SDS011;10839;43.206;23.550;2024-02-21T13:29:48;9.20;;;6.53;;
21360;SDS011;10839;43.206;23.550;2024-02-21T13:32:14;10.93;;;6.13;;
21360;SDS011;10839;43.206;23.550;2024-02-21T13:34:41;9.55;;;5.80;;
21360;SDS011;10839;43.206;23.550;2024-02-21T13:37:07;12.82;;;6.85;;
21360;SDS011;10839;43.206;23.550;2024-02-21T13:39:35;16.10;;;8.77;;
21360;SDS011;10839;43.206;23.550;2024-02-21T13:42:01;11.93;;;7.10;;
21360;SDS011;10839;43.206;23.550;2024-02-21T13:44:27;14.40;;;7.47;;
21360;SDS011;10839;43.206;23.550;2024-02-21T13:46:53;10.20;;;6.15;;
21360;SDS011;10839;43.206;23.550;2024-02-21T13:49:18;13.70;;;7.82;;
21360;SDS011;10839;43.206;23.550;2024-02-21T13:51:44;11.70;;;7.05;;
21360;SDS011;10839;43.206;23.550;2024-02-21T13:54:10;11.38;;;6.72;;
21360;SDS011;10839;43.206;23.550;2024-02-21T13:56:36;11.15;;;7.10;;
21360;SDS011;10839;43.206;23.550;2024-02-21T13:59:02;14.25;;;9.07;;
21360;SDS011;10839;43.206;23.550;2024-02-21T14:01:28;12.55;;;7.75;;
21360;SDS011;10839;43.206;23.550;2024-02-21T14:03:53;10.25;;;6.78;;
21360;SDS011;10839;43.206;23.550;2024-02-21T14:06:19;13.73;;;8.57;;
21360;SDS011;10839;43.206;23.550;2024-02-21T14:08:45;17.85;;;9.68;;
21360;SDS011;10839;43.206;23.550;2024-02-21T14:11:10;16.08;;;9.73;;
21360;SDS011;10839;43.206;23.550;2024-02-21T14:13:36;18.80;;;11.10;;
21360;SDS011;10839;43.206;23.550;2024-02-21T14:16:01;16.67;;;10.57;;
21360;SDS011;10839;43.206;23.550;2024-02-21T14:18:27;22.15;;;11.25;;
21360;SDS011;10839;43.206;23.550;2024-02-21T14:20:53;20.05;;;11.55;;
21360;SDS011;10839;43.206;23.550;2024-02-21T14:23:18;25.50;;;12.57;;
21360;SDS011;10839;43.206;23.550;2024-02-21T14:25:44;19.48;;;11.57;;